Time;durP1;ratioP1;P1;durP2;ratioP2;P2;SDS_P1;SDS_P2;PMS_P1;PMS_P2;Temp;Humidity;BMP_temperature;BMP_pressure;BME280_temperature;BME280_humidity;BME280_pressure;Samples;Min_cycle;Max_cycle;Signal;HPM_P1;HPM_P2
2022/12/27 00:00:51;;;;;;;0.20;0.20;;;;;;;-0.22;100.00;97128.31;4956540;28;20475;-70
2022/12/27 00:03:38;;;;;;;0.20;0.20;;;;;;;-0.21;100.00;97142.28;4944845;28;20539;-72
2022/12/27 00:06:25;;;;;;;0.20;0.20;;;;;;;-0.30;100.00;97144.09;4944235;28;20555;-72
2022/12/27 00:09:11;;;;;;;0.22;0.22;;;;;;;-0.29;100.00;97137.84;4944547;28;20042;-72
2022/12/27 00:11:57;;;;;;;0.13;0.13;;;;;;;-0.33;100.00;97142.59;4942664;28;20249;-72
2022/12/27 00:14:42;;;;;;;0.20;0.20;;;;;;;-0.29;100.00;97141.28;4942082;28;20154;-72
2022/12/27 00:17:28;;;;;;;0.20;0.20;;;;;;;-0.36;100.00;97139.47;4956439;28;20047;-70
2022/12/27 00:20:14;;;;;;;0.20;0.20;;;;;;;-0.36;100.00;97135.03;4944795;28;20046;-73
2022/12/27 00:23:00;;;;;;;0.20;0.20;;;;;;;-0.30;100.00;97138.81;4943235;28;20054;-70
2022/12/27 00:25:47;;;;;;;0.20;0.20;;;;;;;-0.32;100.00;97152.13;4941993;28;20053;-72
2022/12/27 00:28:34;;;;;;;0.20;0.20;;;;;;;-0.35;100.00;97149.81;4944149;28;20042;-71
2022/12/27 00:31:23;;;;;;;0.20;0.20;;;;;;;-0.27;100.00;97149.00;4953343;28;20170;-70
2022/12/27 00:34:09;;;;;;;0.20;0.20;;;;;;;-0.35;100.00;97147.19;4964714;28;20404;-71
2022/12/27 00:36:55;;;;;;;0.20;0.20;;;;;;;-0.26;100.00;97165.59;4963975;28;20179;-70
2022/12/27 00:39:40;;;;;;;0.20;0.20;;;;;;;-0.24;100.00;97158.38;4964087;28;20431;-71
2022/12/27 00:42:27;;;;;;;0.20;0.20;;;;;;;-0.23;100.00;97146.84;4966664;28;20121;-70
2022/12/27 00:45:13;;;;;;;0.20;0.20;;;;;;;-0.20;100.00;97155.25;4963138;28;20455;-72
2022/12/27 00:47:59;;;;;;;0.20;0.20;;;;;;;-0.19;100.00;97167.41;4960326;28;20058;-73
2022/12/27 00:50:45;;;;;;;0.10;0.10;;;;;;;-0.23;100.00;97160.88;4965826;28;20050;-73
2022/12/27 00:53:32;;;;;;;0.10;0.10;;;;;;;-0.22;100.00;97159.88;4963625;28;20277;-73
2022/12/27 00:56:20;;;;;;;0.20;0.20;;;;;;;0.05;100.00;97163.97;4965959;28;20169;-71
2022/12/27 00:59:09;;;;;;;0.20;0.20;;;;;;;0.07;100.00;97163.78;4961557;28;20069;-72
2022/12/27 01:01:55;;;;;;;0.20;0.20;;;;;;;-0.02;100.00;97160.34;4947753;28;20249;-73
2022/12/27 01:04:41;;;;;;;0.20;0.20;;;;;;;-0.03;100.00;97156.06;4943866;28;20130;-73
2022/12/27 01:07:28;;;;;;;0.10;0.10;;;;;;;-0.03;100.00;97150.81;4943355;28;20474;-74
2022/12/27 01:10:14;;;;;;;0.28;0.28;;;;;;;-0.14;100.00;97165.13;4946694;28;20081;-73
2022/12/27 01:13:02;;;;;;;0.20;0.20;;;;;;;-0.17;100.00;97164.63;4942390;28;20038;-70
2022/12/27 01:15:47;;;;;;;0.20;0.20;;;;;;;-0.25;100.00;97170.69;4945017;28;20464;-72
2022/12/27 01:18:33;;;;;;;0.20;0.20;;;;;;;-0.33;100.00;97170.69;4942110;28;20190;-74
2022/12/27 01:21:21;;;;;;;0.20;0.20;;;;;;;-0.36;100.00;97179.75;4945557;28;20145;-73
2022/12/27 01:24:07;;;;;;;0.20;0.20;;;;;;;-0.39;100.00;97185.34;4943241;28;20455;-73
2022/12/27 01:26:53;;;;;;;0.20;0.20;;;;;;;-0.39;100.00;97179.22;4944757;28;20726;-73
2022/12/27 01:29:39;;;;;;;0.20;0.20;;;;;;;-0.26;100.00;97190.09;4943475;28;20047;-70
2022/12/27 01:32:25;;;;;;;0.10;0.10;;;;;;;-0.24;100.00;97182.03;4940918;28;20047;-74
2022/12/27 01:35:10;;;;;;;0.20;0.20;;;;;;;-0.14;100.00;97185.38;4943032;28;20039;-71
2022/12/27 01:37:56;;;;;;;0.20;0.20;;;;;;;-0.17;100.00;97190.94;4940184;28;20276;-72
2022/12/27 01:40:42;;;;;;;0.20;0.20;;;;;;;-0.23;100.00;97184.53;4942971;28;20523;-71
2022/12/27 01:43:37;;;;;;;0.20;0.20;;;;;;;-0.19;100.00;97185.84;4944755;28;20057;-73
2022/12/27 01:46:23;;;;;;;0.20;0.20;;;;;;;-0.25;100.00;97193.56;4943817;28;20046;-71
2022/12/27 01:49:10;;;;;;;0.20;0.20;;;;;;;-0.31;100.00;97189.78;4942790;28;20050;-73
2022/12/27 01:51:57;;;;;;;0.20;0.20;;;;;;;-0.43;100.00;97205.03;4941908;28;20047;-72
2022/12/27 01:54:43;;;;;;;0.20;0.20;;;;;;;-0.55;100.00;97208.94;4942377;28;20047;-73
2022/12/27 01:57:29;;;;;;;0.20;0.20;;;;;;;-0.59;100.00;97208.47;4942630;28;20418;-73
2022/12/27 02:00:16;;;;;;;0.20;0.20;;;;;;;-0.60;100.00;97209.44;4940995;28;20728;-73
2022/12/27 02:03:04;;;;;;;0.20;0.20;;;;;;;-0.75;100.00;97208.41;4942170;28;20137;-73
2022/12/27 02:05:51;;;;;;;0.20;0.20;;;;;;;-0.59;100.00;97224.22;4955165;28;20074;-73
2022/12/27 02:08:40;;;;;;;0.20;0.20;;;;;;;-0.55;100.00;97222.09;4942733;28;20047;-74
2022/12/27 02:14:41;;;;;;;0.20;0.20;;;;;;;-0.58;100.00;97228.50;4943940;28;20248;-73
2022/12/27 02:17:30;;;;;;;0.20;0.20;;;;;;;-0.44;100.00;97224.44;4943414;28;20043;-71
2022/12/27 02:20:21;;;;;;;0.20;0.20;;;;;;;-0.25;100.00;97230.38;4942335;28;20225;-73
2022/12/27 02:26:44;;;;;;;0.10;0.10;;;;;;;-0.47;100.00;97218.66;4943219;28;20594;-71
2022/12/27 02:29:55;;;;;;;0.20;0.20;;;;;;;-0.51;100.00;97225.25;4944345;28;20051;-74
2022/12/27 02:32:49;;;;;;;0.20;0.20;;;;;;;-0.52;100.00;97234.94;4962609;28;20053;-72
2022/12/27 02:35:42;;;;;;;0.20;0.20;;;;;;;-0.57;100.00;97224.88;4966178;28;20924;-73
2022/12/27 02:38:38;;;;;;;0.10;0.10;;;;;;;-0.60;100.00;97221.75;4966164;28;20121;-72
2022/12/27 02:54:46;;;;;;;0.13;0.13;;;;;;;-0.25;100.00;97244.34;4965090;28;20054;-72
2022/12/27 02:57:51;;;;;;;0.15;0.15;;;;;;;-0.20;100.00;97233.34;4963567;28;20039;-72
2022/12/27 03:04:20;;;;;;;0.20;0.20;;;;;;;-0.08;100.00;97247.81;4943731;28;20059;-73
2022/12/27 03:07:33;;;;;;;0.20;0.20;;;;;;;-0.01;100.00;97247.03;4945046;28;20047;-73
2022/12/27 03:16:57;;;;;;;0.20;0.20;;;;;;;0.08;100.00;97244.41;4944484;28;20524;-71
2022/12/27 03:26:01;;;;;;;0.10;0.10;;;;;;;0.22;100.00;97254.28;4945988;28;20043;-72
2022/12/27 03:35:18;;;;;;;0.20;0.20;;;;;;;0.21;100.00;97253.47;4964404;28;20641;-71
2022/12/27 03:38:08;;;;;;;0.20;0.20;;;;;;;0.04;100.00;97251.81;4964452;28;20042;-74
2022/12/27 03:44:23;;;;;;;0.20;0.20;;;;;;;-0.16;100.00;97256.53;4966017;28;20142;-70
2022/12/27 03:47:16;;;;;;;;;;;;;;;-0.10;100.00;97257.69;4964221;28;20050;-71
2022/12/27 03:50:11;;;;;;;0.20;0.20;;;;;;;-0.04;100.00;97259.69;4967339;28;19972;-70
2022/12/27 03:53:05;;;;;;;0.20;0.20;;;;;;;-0.12;100.00;97260.50;4960444;28;20352;-70
2022/12/27 03:55:51;;;;;;;0.20;0.20;;;;;;;-0.17;100.00;97259.34;4965009;28;20391;-69
2022/12/27 03:58:37;;;;;;;0.20;0.20;;;;;;;-0.24;100.00;97245.19;4963092;28;20229;-74
2022/12/27 04:01:23;;;;;;;0.20;0.20;;;;;;;-0.27;100.00;97254.22;4955119;28;20054;-72
2022/12/27 04:04:09;;;;;;;0.20;0.20;;;;;;;-0.31;100.00;97258.19;4944832;28;20050;-74
2022/12/27 04:06:54;;;;;;;0.20;0.20;;;;;;;-0.30;100.00;97246.66;4939461;28;20382;-71
2022/12/27 04:37:21;;;;;;;0.20;0.20;;;;;;;-0.42;100.00;97256.66;4942151;28;20377;-72
2022/12/27 04:55:36;;;;;;;0.20;0.20;;;;;;;-0.29;100.00;97261.47;4944999;28;20133;-73
2022/12/27 04:58:23;;;;;;;0.20;0.20;;;;;;;-0.17;100.00;97278.56;4945710;28;20043;-73
2022/12/27 05:04:13;;;;;;;0.20;0.20;;;;;;;-0.14;100.00;97261.66;4946360;28;20577;-71
2022/12/27 05:13:58;;;;;;;0.20;0.20;;;;;;;-0.17;100.00;97257.53;4946187;28;20046;-70
2022/12/27 05:16:18;;;;;;;0.20;0.20;;;;;;;-0.32;100.00;97257.31;4947471;28;20125;-72
2022/12/27 05:19:06;;;;;;;0.10;0.10;;;;;;;-0.31;100.00;97266.06;4946661;28;20098;-73
2022/12/27 05:28:06;;;;;;;0.20;0.20;;;;;;;-0.36;100.00;97277.06;4945726;28;20042;-69
2022/12/27 05:31:00;;;;;;;0.20;0.20;;;;;;;-0.39;100.00;97281.78;4952859;28;20156;-69
2022/12/27 05:33:47;;;;;;;0.13;0.13;;;;;;;-0.37;100.00;97278.03;4965835;28;20553;-71
2022/12/27 05:36:33;;;;;;;0.20;0.20;;;;;;;-0.31;100.00;97281.84;4965547;28;20108;-71
2022/12/27 05:39:19;;;;;;;0.17;0.17;;;;;;;-0.35;100.00;97273.44;4962848;28;20049;-71
2022/12/27 05:42:05;;;;;;;0.20;0.20;;;;;;;-0.28;100.00;97279.69;4964473;28;20628;-70
2022/12/27 05:44:51;;;;;;;0.20;0.20;;;;;;;-0.27;100.00;97291.06;4964777;28;20272;-71
2022/12/27 05:47:39;;;;;;;0.20;0.20;;;;;;;-0.23;100.00;97292.38;4964259;28;20042;-73
2022/12/27 05:50:27;;;;;;;0.20;0.20;;;;;;;-0.16;100.00;97288.09;4976889;28;20569;-72
2022/12/27 05:53:28;;;;;;;0.20;0.20;;;;;;;-0.14;100.00;97286.16;4964503;28;20039;-71
2022/12/27 05:56:16;;;;;;;0.20;0.20;;;;;;;-0.10;100.00;97291.91;4965418;28;20070;-72
2022/12/27 05:59:03;;;;;;;0.20;0.20;;;;;;;-0.16;100.00;97289.91;4965391;28;20107;-71
2022/12/27 06:01:50;;;;;;;0.20;0.20;;;;;;;-0.18;100.00;97302.41;4950344;28;20125;-71
2022/12/27 06:04:36;;;;;;;0.20;0.20;;;;;;;-0.23;100.00;97291.53;4945340;28;20058;-72
2022/12/27 06:07:22;;;;;;;0.20;0.20;;;;;;;-0.17;100.00;97301.44;4942683;28;20050;-71
2022/12/27 06:10:08;;;;;;;0.20;0.20;;;;;;;-0.15;100.00;97300.31;4947890;28;20549;-70
2022/12/27 06:12:54;;;;;;;0.20;0.20;;;;;;;-0.14;100.00;97301.13;4950319;28;20237;-71
2022/12/27 06:15:40;;;;;;;0.20;0.20;;;;;;;-0.20;100.00;97304.38;4961208;28;20108;-71
2022/12/27 06:18:30;;;;;;;0.20;0.20;;;;;;;-0.16;100.00;97303.06;4945881;28;20438;-71
2022/12/27 06:21:19;;;;;;;0.10;0.10;;;;;;;0.02;100.00;97310.84;4951089;28;20093;-73
2022/12/27 06:24:05;;;;;;;0.20;0.20;;;;;;;0.01;100.00;97304.78;4948970;28;20386;-71
2022/12/27 06:26:51;;;;;;;0.20;0.20;;;;;;;0.01;100.00;97314.47;4950969;28;20046;-71
2022/12/27 06:29:36;;;;;;;0.20;0.20;;;;;;;0.05;100.00;97305.25;4948694;28;20543;-73
2022/12/27 06:32:22;;;;;;;0.20;0.20;;;;;;;0.08;100.00;97299.66;4948964;28;20468;-69
2022/12/27 06:35:10;;;;;;;0.20;0.20;;;;;;;0.01;100.00;97301.31;4950207;28;20359;-70
2022/12/27 06:37:56;;;;;;;0.20;0.20;;;;;;;-0.04;100.00;97317.59;4946408;28;20406;-71
2022/12/27 06:40:42;;;;;;;0.20;0.20;;;;;;;-0.09;100.00;97315.41;4949059;28;20046;-72
2022/12/27 06:43:27;;;;;;;0.20;0.20;;;;;;;-0.08;100.00;97310.97;4946377;28;20531;-71
2022/12/27 06:46:16;;;;;;;0.20;0.20;;;;;;;-0.07;100.00;97307.41;4945370;28;20114;-75
2022/12/27 06:49:04;;;;;;;0.20;0.20;;;;;;;-0.15;100.00;97310.00;4949526;28;20043;-74
2022/12/27 06:51:50;;;;;;;0.20;0.20;;;;;;;-0.16;100.00;97321.47;4960485;28;20543;-71
2022/12/27 06:54:35;;;;;;;0.20;0.20;;;;;;;-0.15;100.00;97323.97;4947064;28;20371;-73
2022/12/27 06:57:21;;;;;;;0.10;0.10;;;;;;;-0.12;100.00;97318.38;4947752;28;20358;-71
2022/12/27 07:00:07;;;;;;;0.10;0.10;;;;;;;-0.11;100.00;97329.72;4950073;28;20525;-73
2022/12/27 07:02:53;;;;;;;0.20;0.20;;;;;;;-0.16;100.00;97327.56;4947107;28;20047;-73
2022/12/27 07:05:40;;;;;;;0.20;0.20;;;;;;;-0.20;100.00;97328.06;4949030;28;20125;-74
2022/12/27 07:08:26;;;;;;;0.20;0.20;;;;;;;-0.21;100.00;97348.28;4946939;28;20841;-73
2022/12/27 07:11:13;;;;;;;0.20;0.20;;;;;;;-0.16;100.00;97345.97;4948672;28;20047;-73
2022/12/27 07:13:59;;;;;;;0.20;0.20;;;;;;;-0.20;100.00;97354.38;4948726;28;20105;-73
2022/12/27 07:16:48;;;;;;;0.20;0.20;;;;;;;-0.19;100.00;97356.84;4947190;28;20074;-73
2022/12/27 07:19:33;;;;;;;0.20;0.20;;;;;;;-0.24;100.00;97353.03;4947531;28;20381;-74
2022/12/27 07:22:20;;;;;;;0.20;0.20;;;;;;;-0.31;100.00;97353.69;4946312;28;20503;-74
2022/12/27 07:25:06;;;;;;;0.20;0.20;;;;;;;-0.28;100.00;97363.88;4948585;28;20038;-73
2022/12/27 07:27:52;;;;;;;0.20;0.20;;;;;;;-0.29;100.00;97375.38;4948591;28;20057;-72
2022/12/27 07:30:41;;;;;;;0.20;0.20;;;;;;;-0.32;100.00;97374.88;4948544;28;20341;-74
2022/12/27 07:33:27;;;;;;;0.20;0.20;;;;;;;-0.15;100.00;97381.88;4931725;28;20051;-74
2022/12/27 07:36:16;;;;;;;0.20;0.20;;;;;;;0.02;100.00;97395.91;4947951;28;20602;-74
2022/12/27 07:39:03;;;;;;;0.10;0.10;;;;;;;0.14;100.00;97383.25;4955749;28;20488;-74
2022/12/27 07:41:48;;;;;;;0.20;0.20;;;;;;;0.17;100.00;97399.56;4947741;28;20034;-72
2022/12/27 07:44:34;;;;;;;0.17;0.17;;;;;;;0.27;100.00;97381.00;4946767;28;20121;-74
2022/12/27 07:47:20;;;;;;;0.10;0.10;;;;;;;0.26;100.00;97382.81;4946060;28;20165;-75
2022/12/27 07:50:06;;;;;;;0.20;0.20;;;;;;;0.39;100.00;97392.88;4948300;28;20466;-72
2022/12/27 07:52:52;;;;;;;0.20;0.20;;;;;;;0.42;100.00;97396.97;4946735;28;20467;-71
2022/12/27 07:55:38;;;;;;;0.20;0.20;;;;;;;0.39;100.00;97392.88;4947663;28;20455;-74
2022/12/27 07:58:25;;;;;;;0.15;0.15;;;;;;;0.45;100.00;97391.38;4948326;28;20420;-74
2022/12/27 08:01:12;;;;;;;0.20;0.20;;;;;;;0.45;100.00;97391.38;4948580;28;20050;-74
2022/12/27 08:03:58;;;;;;;0.20;0.20;;;;;;;0.44;100.00;97397.63;4946225;28;20129;-72
2022/12/27 08:06:45;;;;;;;0.20;0.20;;;;;;;0.47;100.00;97394.69;4947885;28;20491;-73
2022/12/27 08:09:35;;;;;;;0.20;0.20;;;;;;;0.59;100.00;97393.38;4949203;28;20160;-72
2022/12/27 08:12:21;;;;;;;0.20;0.20;;;;;;;0.63;100.00;97397.34;4947870;28;20061;-72
2022/12/27 08:15:09;;;;;;;0.20;0.20;;;;;;;0.59;100.00;97398.66;4960082;28;20045;-71
2022/12/27 08:17:55;;;;;;;0.20;0.20;;;;;;;0.60;100.00;97402.94;4959717;28;20618;-73
2022/12/27 08:20:41;;;;;;;0.20;0.20;;;;;;;0.68;100.00;97405.56;4948752;28;20567;-75
2022/12/27 08:23:27;;;;;;;0.20;0.20;;;;;;;0.70;100.00;97406.25;4945899;28;20517;-73
2022/12/27 08:26:13;;;;;;;0.20;0.20;;;;;;;0.77;100.00;97404.59;4950040;28;20520;-72
2022/12/27 08:28:59;;;;;;;0.20;0.20;;;;;;;0.74;100.00;97404.09;4947895;28;20061;-73
2022/12/27 08:31:45;;;;;;;0.20;0.20;;;;;;;0.75;100.00;97403.94;4946560;28;20208;-74
2022/12/27 08:34:30;;;;;;;0.20;0.20;;;;;;;0.80;100.00;97406.09;4946489;28;20043;-74
2022/12/27 08:37:16;;;;;;;0.20;0.20;;;;;;;0.68;100.00;97402.94;4944828;28;20158;-72
2022/12/27 08:40:02;;;;;;;0.20;0.20;;;;;;;0.66;100.00;97409.38;4959500;28;20051;-72
2022/12/27 08:42:48;;;;;;;0.20;0.20;;;;;;;0.92;100.00;97406.56;4946256;28;20399;-73
2022/12/27 08:45:36;;;;;;;0.20;0.20;;;;;;;0.99;100.00;97407.56;4948297;28;20055;-74
2022/12/27 08:48:21;;;;;;;0.20;0.20;;;;;;;0.86;100.00;97412.50;4946114;28;20047;-73
2022/12/27 08:51:07;;;;;;;0.20;0.20;;;;;;;0.90;100.00;97421.72;4949268;28;20134;-74
2022/12/27 08:53:53;;;;;;;0.20;0.20;;;;;;;0.94;100.00;97421.25;4946057;28;20458;-74
2022/12/27 08:56:39;;;;;;;0.20;0.20;;;;;;;0.93;100.00;97416.94;4944059;28;20050;-75
2022/12/27 08:59:25;;;;;;;0.20;0.20;;;;;;;0.99;100.00;97420.75;4944983;28;20055;-74
2022/12/27 09:02:13;;;;;;;0.20;0.20;;;;;;;1.00;100.00;97415.28;4961275;28;20493;-75
2022/12/27 09:04:58;;;;;;;0.20;0.20;;;;;;;1.15;100.00;97419.91;4964804;28;20046;-74
2022/12/27 09:07:45;;;;;;;0.20;0.20;;;;;;;1.17;100.00;97428.47;4964388;28;20116;-74
2022/12/27 09:10:31;;;;;;;0.20;0.20;;;;;;;1.23;100.00;97433.09;4978952;28;20050;-71
2022/12/27 09:13:17;;;;;;;0.20;0.20;;;;;;;1.17;100.00;97433.75;4964011;28;20105;-75
2022/12/27 09:16:12;;;;;;;0.20;0.20;;;;;;;1.05;100.00;97446.44;4966991;28;20079;-74
2022/12/27 09:18:58;;;;;;;0.20;0.20;;;;;;;1.08;100.00;97441.66;4966902;28;20042;-71
2022/12/27 09:21:44;;;;;;;0.20;0.20;;;;;;;1.29;100.00;97449.06;4967268;28;20049;-75
2022/12/27 09:24:30;;;;;;;0.20;0.20;;;;;;;1.25;100.00;97452.22;4966774;28;20046;-72
2022/12/27 09:27:16;;;;;;;0.20;0.20;;;;;;;1.37;100.00;97451.72;4965983;28;20057;-76
2022/12/27 09:30:05;;;;;;;0.20;0.20;;;;;;;1.47;100.00;97450.69;4978352;28;20345;-74
2022/12/27 09:32:50;;;;;;;0.20;0.20;;;;;;;1.48;100.00;97444.44;4965003;28;20081;-73
2022/12/27 09:35:36;;;;;;;0.20;0.20;;;;;;;1.35;100.00;97451.06;4964409;28;20518;-74
2022/12/27 09:38:25;;;;;;;0.20;0.20;;;;;;;1.32;100.00;97459.31;4970562;28;20108;-74
2022/12/27 09:41:17;;;;;;;0.20;0.20;;;;;;;1.51;100.00;97468.69;4978220;28;20061;-74
2022/12/27 09:44:44;;;;;;;0.20;0.20;;;;;;;1.91;100.00;97467.75;4965839;28;20592;-73
2022/12/27 09:47:33;;;;;;;0.10;0.10;;;;;;;2.01;100.00;97467.56;4913136;28;20724;-72
2022/12/27 09:50:45;;;;;;;0.20;0.20;;;;;;;1.79;100.00;97465.66;4968225;28;20046;-73
2022/12/27 09:53:47;;;;;;;0.20;0.20;;;;;;;2.06;100.00;97469.72;4975690;28;20046;-71
2022/12/27 09:56:33;;;;;;;;;;;;;;;1.96;100.00;97472.56;4966688;28;20369;-74
2022/12/27 09:59:47;;;;;;;0.20;0.20;;;;;;;1.94;100.00;97461.31;4963213;28;19929;-74
2022/12/27 10:02:33;;;;;;;0.20;0.20;;;;;;;2.06;100.00;97456.50;4942443;28;21127;-73
2022/12/27 10:05:22;;;;;;;0.28;0.28;;;;;;;2.05;100.00;97460.16;4946130;28;20051;-73
2022/12/27 10:08:24;;;;;;;0.20;0.20;;;;;;;2.01;100.00;97457.00;4945434;28;20097;-72
2022/12/27 10:11:38;;;;;;;0.30;0.30;;;;;;;2.48;100.00;97459.59;4948342;28;20050;-74
2022/12/27 10:15:02;;;;;;;0.20;0.20;;;;;;;2.17;100.00;97477.25;4944737;28;20043;-72
2022/12/27 10:18:09;;;;;;;0.20;0.20;;;;;;;2.43;100.00;97461.16;4946440;28;20535;-71
2022/12/27 10:20:58;;;;;;;0.30;0.30;;;;;;;2.82;100.00;97458.44;4949264;28;20539;-73
2022/12/27 10:23:51;;;;;;;0.20;0.20;;;;;;;2.92;100.00;97447.63;4946403;28;20114;-72
2022/12/27 10:26:37;;;;;;;0.10;0.10;;;;;;;3.55;100.00;97452.56;4947024;28;20121;-74
2022/12/27 10:29:25;;;;;;;0.20;0.20;;;;;;;2.77;100.00;97450.19;4943839;28;20594;-72
2022/12/27 10:32:14;;;;;;;0.17;0.17;;;;;;;2.37;100.00;97456.53;4945518;28;20587;-70
2022/12/27 10:35:01;;;;;;;0.13;0.13;;;;;;;2.33;100.00;97442.84;4946211;28;20077;-73
2022/12/27 10:37:48;;;;;;;0.20;0.20;;;;;;;2.14;100.00;97451.19;4945313;28;20042;-74
2022/12/27 10:40:47;;;;;;;0.20;0.20;;;;;;;2.30;100.00;97437.91;4947203;28;20342;-73
2022/12/27 10:43:40;;;;;;;0.20;0.20;;;;;;;2.76;100.00;97438.81;4944719;28;20117;-73
2022/12/27 10:46:29;;;;;;;0.20;0.20;;;;;;;2.96;100.00;97451.59;4944449;28;20621;-74
2022/12/27 10:49:27;;;;;;;0.20;0.20;;;;;;;3.08;100.00;97453.63;4945852;28;20258;-73
2022/12/27 10:52:19;;;;;;;0.20;0.20;;;;;;;3.25;100.00;97448.19;4958954;28;20043;-73
2022/12/27 10:55:05;;;;;;;0.17;0.17;;;;;;;3.01;100.00;97455.31;4947103;28;20035;-75
2022/12/27 10:57:50;;;;;;;0.13;0.13;;;;;;;3.38;100.00;97448.41;4949724;28;20038;-73
2022/12/27 11:00:36;;;;;;;0.20;0.20;;;;;;;3.28;100.00;97448.69;4949224;28;20721;-75
2022/12/27 11:03:25;;;;;;;0.20;0.20;;;;;;;3.08;100.00;97445.69;4948885;28;20511;-72
2022/12/27 11:06:23;;;;;;;0.30;0.30;;;;;;;3.85;100.00;97448.13;4947203;28;20593;-74
2022/12/27 11:09:44;;;;;;;0.20;0.20;;;;;;;3.40;100.00;97462.28;4951393;28;20328;-74
2022/12/27 11:12:31;;;;;;;0.30;0.30;;;;;;;3.78;100.00;97454.31;4850733;29;20104;-72
2022/12/27 11:15:19;;;;;;;0.28;0.28;;;;;;;4.19;100.00;97452.03;4950666;28;20387;-71
2022/12/27 11:18:17;;;;;;;0.20;0.20;;;;;;;4.11;100.00;97447.66;4947709;28;20153;-72
2022/12/27 11:21:03;;;;;;;0.20;0.20;;;;;;;3.63;100.00;97465.72;4950155;28;20335;-72
2022/12/27 11:23:54;;;;;;;0.20;0.20;;;;;;;3.39;100.00;97458.00;4950724;28;20109;-73
2022/12/27 11:26:49;;;;;;;0.20;0.20;;;;;;;2.78;100.00;97462.41;4947252;28;20320;-74
2022/12/27 11:29:36;;;;;;;0.17;0.17;;;;;;;2.93;100.00;97454.56;4947324;28;20126;-74
2022/12/27 11:32:23;;;;;;;0.20;0.20;;;;;;;2.53;100.00;97461.75;4976086;28;20047;-73
2022/12/27 11:35:19;;;;;;;0.20;0.20;;;;;;;2.68;100.00;97467.13;4965696;28;20472;-73
2022/12/27 11:38:18;;;;;;;0.20;0.20;;;;;;;2.86;100.00;97454.44;4959821;28;20116;-74
2022/12/27 11:41:08;;;;;;;0.20;0.20;;;;;;;3.54;100.00;97464.16;4283681;28;10000713;-73
2022/12/27 11:43:57;;;;;;;0.20;0.20;;;;;;;3.88;100.00;97474.22;4964896;28;20038;-71
2022/12/27 11:46:51;;;;;;;0.20;0.20;;;;;;;4.40;100.00;97454.75;4966982;28;20034;-72
2022/12/27 11:50:05;;;;;;;0.30;0.30;;;;;;;5.56;100.00;97456.34;4965024;28;20558;-75
2022/12/27 11:53:41;;;;;;;0.20;0.20;;;;;;;4.35;100.00;97459.78;4966910;28;20550;-73
2022/12/27 11:56:34;;;;;;;0.20;0.20;;;;;;;4.27;100.00;97457.25;4967088;28;20776;-75
2022/12/27 11:59:36;;;;;;;0.20;0.20;;;;;;;4.38;100.00;97455.97;4964993;28;20423;-74
2022/12/27 12:02:39;;;;;;;0.20;0.20;;;;;;;4.12;100.00;97445.81;4946862;28;20086;-72
2022/12/27 12:05:40;;;;;;;0.20;0.20;;;;;;;3.78;100.00;97451.69;4946102;28;20348;-74
2022/12/27 12:08:47;;;;;;;0.20;0.20;;;;;;;3.47;100.00;97451.81;4942633;28;20043;-72
2022/12/27 12:11:59;;;;;;;0.20;0.20;;;;;;;3.57;100.00;97449.72;4951748;28;20633;-73
2022/12/27 12:15:20;;;;;;;0.20;0.20;;;;;;;3.80;100.00;97441.72;4948710;28;20071;-74
2022/12/27 12:18:32;;;;;;;0.10;0.10;;;;;;;3.54;100.00;97450.09;4946197;28;20047;-72
2022/12/27 12:21:30;;;;;;;0.20;0.20;;;;;;;3.66;100.00;97447.81;4946065;28;20035;-74
2022/12/27 12:24:32;;;;;;;0.20;0.20;;;;;;;3.43;100.00;97446.06;4945167;28;20058;-74
2022/12/27 12:27:39;;;;;;;0.20;0.20;;;;;;;3.63;100.00;97444.53;4946418;28;20100;-75
2022/12/27 12:31:16;;;;;;;0.10;0.10;;;;;;;3.75;100.00;97449.41;4945628;28;20101;-73
2022/12/27 12:34:30;;;;;;;0.20;0.20;;;;;;;4.21;100.00;97449.22;4920284;28;20344;-73
2022/12/27 12:37:52;;;;;;;0.20;0.20;;;;;;;3.92;100.00;97445.56;4943893;28;20462;-75
2022/12/27 12:40:44;;;;;;;0.20;0.20;;;;;;;3.99;100.00;97435.91;4946258;28;20304;-74
2022/12/27 12:44:05;;;;;;;0.20;0.20;;;;;;;3.93;100.00;97436.63;4943526;28;20066;-74
2022/12/27 12:47:07;;;;;;;0.20;0.20;;;;;;;4.05;100.00;97427.22;4944217;28;20046;-71
2022/12/27 12:50:16;;;;;;;0.20;0.20;;;;;;;4.72;100.00;97418.22;4946018;28;20328;-70
2022/12/27 12:53:04;;;;;;;0.20;0.20;;;;;;;4.26;100.00;97425.63;4926656;28;20374;-73
2022/12/27 12:56:24;;;;;;;0.20;0.20;;;;;;;4.44;100.00;97418.13;4947729;28;20085;-74
2022/12/27 12:59:38;;;;;;;0.20;0.20;;;;;;;4.11;100.00;97428.28;4943584;28;20054;-74
2022/12/27 13:02:27;;;;;;;0.20;0.20;;;;;;;3.83;100.00;97431.59;4965302;28;20117;-74
2022/12/27 13:05:21;;;;;;;0.10;0.10;;;;;;;3.78;100.00;97441.09;4967237;28;20084;-73
2022/12/27 13:08:17;;;;;;;0.20;0.20;;;;;;;3.96;100.00;97436.25;4966562;28;20359;-73
2022/12/27 13:11:36;;;;;;;0.20;0.20;;;;;;;4.08;100.00;97429.50;4967866;28;20138;-73
2022/12/27 13:14:39;;;;;;;0.20;0.20;;;;;;;4.42;100.00;97414.81;4967637;28;20153;-72
2022/12/27 13:18:03;;;;;;;0.20;0.20;;;;;;;4.92;100.00;97418.44;4968023;28;20550;-72
2022/12/27 13:21:10;;;;;;;0.20;0.20;;;;;;;5.26;100.00;97417.69;4965967;28;20067;-75
2022/12/27 13:24:19;;;;;;;0.20;0.20;;;;;;;4.64;100.00;97413.84;4965527;28;20465;-72
2022/12/27 13:27:24;;;;;;;0.20;0.20;;;;;;;3.86;100.00;97415.34;4967774;28;20042;-71
2022/12/27 13:30:20;;;;;;;0.20;0.20;;;;;;;3.83;100.00;97425.50;4965470;28;20546;-73
2022/12/27 13:33:34;;;;;;;0.20;0.20;;;;;;;4.01;100.00;97409.22;4964592;28;20054;-75
2022/12/27 13:36:43;;;;;;;0.20;0.20;;;;;;;4.03;100.00;97413.31;4956535;28;20050;-75
2022/12/27 13:39:48;;;;;;;0.10;0.10;;;;;;;4.17;100.00;97399.25;4964632;28;20042;-73
2022/12/27 13:42:54;;;;;;;0.20;0.20;;;;;;;4.05;100.00;97402.56;4963380;28;20105;-75
2022/12/27 13:45:48;;;;;;;0.20;0.20;;;;;;;3.73;100.00;97391.31;4964644;28;20046;-75
2022/12/27 13:48:43;;;;;;;0.20;0.20;;;;;;;3.77;100.00;97399.72;4962803;28;20061;-75
2022/12/27 13:51:49;;;;;;;0.20;0.20;;;;;;;3.63;100.00;97388.13;4964323;28;20149;-74
2022/12/27 13:54:47;;;;;;;0.20;0.20;;;;;;;3.51;100.00;97382.47;4964324;28;20320;-75
2022/12/27 13:58:01;;;;;;;0.20;0.20;;;;;;;3.55;100.00;97386.38;4963301;28;20441;-73
2022/12/27 14:01:13;;;;;;;0.10;0.10;;;;;;;3.40;100.00;97376.78;4960183;28;20034;-72
2022/12/27 14:04:11;;;;;;;0.10;0.10;;;;;;;3.51;100.00;97374.53;4945936;28;20323;-75
2022/12/27 14:06:57;;;;;;;0.10;0.10;;;;;;;3.22;100.00;97380.59;4945781;28;20532;-75
2022/12/27 14:10:05;;;;;;;0.20;0.20;;;;;;;3.27;100.00;97378.25;4944883;28;20043;-73
2022/12/27 14:13:00;;;;;;;0.17;0.17;;;;;;;3.04;100.00;97366.91;4945979;28;20042;-75
2022/12/27 14:16:15;;;;;;;0.20;0.20;;;;;;;2.93;100.00;97376.06;4957954;28;20050;-73
2022/12/27 14:19:15;;;;;;;0.20;0.20;;;;;;;3.02;100.00;97353.81;4959058;28;20050;-72
2022/12/27 14:22:42;;;;;;;0.20;0.20;;;;;;;3.05;100.00;97361.41;4948071;28;20374;-73
2022/12/27 14:25:31;;;;;;;0.20;0.20;;;;;;;2.91;100.00;97364.84;4939417;28;20510;-73
2022/12/27 14:29:07;;;;;;;0.20;0.20;;;;;;;2.89;100.00;97368.69;4946675;28;20047;-72
2022/12/27 14:32:33;;;;;;;0.30;0.30;;;;;;;2.86;100.00;97376.94;4963423;28;20128;-74
2022/12/27 14:35:42;;;;;;;0.20;0.20;;;;;;;2.76;100.00;97375.38;4972550;28;20489;-74
2022/12/27 14:38:56;;;;;;;0.10;0.10;;;;;;;2.71;100.00;97371.59;4970986;28;20050;-74
2022/12/27 14:41:45;;;;;;;0.20;0.20;;;;;;;2.62;100.00;97368.19;4971639;28;20270;-74
2022/12/27 14:45:19;;;;;;;0.20;0.20;;;;;;;2.63;100.00;97376.94;4980995;28;20050;-71
2022/12/27 14:48:20;;;;;;;0.17;0.17;;;;;;;2.60;100.00;97374.66;4969959;28;20050;-74
2022/12/27 14:51:15;;;;;;;0.20;0.20;;;;;;;2.57;100.00;97364.44;4968474;28;20065;-76
2022/12/27 14:54:14;;;;;;;0.20;0.20;;;;;;;2.47;100.00;97385.81;4968102;28;20042;-73
2022/12/27 14:57:00;;;;;;;0.20;0.20;;;;;;;2.44;100.00;97380.88;4968956;28;20104;-74
2022/12/27 15:00:12;;;;;;;0.20;0.20;;;;;;;2.44;100.00;97381.69;4969430;28;20050;-71
2022/12/27 15:02:57;;;;;;;0.20;0.20;;;;;;;2.35;100.00;97393.31;4967998;28;20286;-72
2022/12/27 15:05:55;;;;;;;0.20;0.20;;;;;;;2.35;100.00;97382.75;4966712;28;20160;-73
2022/12/27 15:09:05;;;;;;;0.20;0.20;;;;;;;2.27;100.00;97381.97;4967489;28;20522;-75
2022/12/27 15:12:25;;;;;;;0.20;0.20;;;;;;;2.17;100.00;97385.63;4968944;28;20046;-74
2022/12/27 15:15:26;;;;;;;0.20;0.20;;;;;;;2.12;100.00;97382.72;4968561;28;20131;-75
2022/12/27 15:18:39;;;;;;;0.20;0.20;;;;;;;2.15;100.00;97387.63;4967262;28;20058;-74